Time;durP1;ratioP1;P1;durP2;ratioP2;P2;SDS_P1;SDS_P2;PMS_P1;PMS_P2;Temp;Humidity;BMP_temperature;BMP_pressure;BME280_temperature;BME280_humidity;BME280_pressure;Samples;Min_cycle;Max_cycle;Signal;HPM_P1;HPM_P2
2023/05/31 00:01:50;;;;;;;7.53;5.93;;;20.40;81.80;;;;;;5117778;27;20279;-62
2023/05/31 00:04:18;;;;;;;9.37;5.40;;;20.40;81.70;;;;;;5114669;27;20188;-63
2023/05/31 00:06:45;;;;;;;12.57;5.47;;;20.40;81.50;;;;;;5116591;27;20207;-63
2023/05/31 00:09:12;;;;;;;11.33;5.67;;;20.40;81.40;;;;;;5116001;27;20201;-64
2023/05/31 00:11:39;;;;;;;6.43;5.27;;;20.40;81.30;;;;;;5116540;27;20202;-63
2023/05/31 00:14:06;;;;;;;7.17;5.47;;;20.40;81.30;;;;;;5115852;27;20223;-63
2023/05/31 00:16:33;;;;;;;6.33;5.20;;;20.40;80.90;;;;;;5117414;27;20224;-63
2023/05/31 00:19:03;;;;;;;5.73;4.80;;;20.40;81.10;;;;;;5117099;27;20192;-63
2023/05/31 00:21:30;;;;;;;5.33;4.43;;;20.40;81.00;;;;;;5112035;27;20220;-63
2023/05/31 00:23:57;;;;;;;5.97;4.70;;;20.40;80.80;;;;;;5117173;27;20193;-63
2023/05/31 00:26:24;;;;;;;9.03;5.40;;;20.40;80.70;;;;;;5113121;27;20216;-63
2023/05/31 00:28:51;;;;;;;8.23;5.17;;;20.40;80.00;;;;;;5115237;27;20220;-65
2023/05/31 00:31:19;;;;;;;6.60;5.30;;;20.40;80.00;;;;;;5115141;27;20235;-63
2023/05/31 00:33:46;;;;;;;7.57;4.93;;;20.40;79.70;;;;;;5115689;27;20216;-64
2023/05/31 00:36:13;;;;;;;5.60;5.00;;;20.40;79.80;;;;;;5125032;27;20212;-68
2023/05/31 00:38:40;;;;;;;7.73;4.33;;;20.40;80.00;;;;;;5115145;27;20200;-63
2023/05/31 00:41:09;;;;;;;7.43;5.50;;;20.40;80.00;;;;;;5113492;27;20213;-64
2023/05/31 00:43:37;;;;;;;9.00;5.40;;;20.30;79.90;;;;;;5116766;27;20719;-64
2023/05/31 00:46:04;;;;;;;6.27;4.40;;;20.30;79.80;;;;;;5114306;27;20202;-63
2023/05/31 00:48:32;;;;;;;6.40;5.30;;;20.30;80.00;;;;;;5113555;27;20236;-63
2023/05/31 00:51:01;;;;;;;9.43;5.40;;;20.30;79.90;;;;;;5114938;27;20670;-63
2023/05/31 00:53:28;;;;;;;9.23;4.70;;;20.30;79.50;;;;;;5116958;27;20207;-63
2023/05/31 00:55:55;;;;;;;6.90;4.77;;;20.30;79.70;;;;;;5112698;28;20203;-63
2023/05/31 00:58:26;;;;;;;6.87;4.87;;;20.20;79.80;;;;;;5114176;27;20200;-63
2023/05/31 01:00:55;;;;;;;6.60;4.83;;;20.20;80.00;;;;;;5112816;27;20223;-63
2023/05/31 01:03:22;;;;;;;6.10;4.53;;;20.20;80.00;;;;;;5116045;27;20200;-63
2023/05/31 01:05:49;;;;;;;7.00;5.30;;;20.20;79.60;;;;;;5114809;27;20296;-63
2023/05/31 01:08:16;;;;;;;6.67;5.03;;;20.20;79.80;;;;;;5113972;27;20197;-63
2023/05/31 01:10:44;;;;;;;7.13;4.67;;;20.20;79.90;;;;;;5113929;27;20231;-63
2023/05/31 01:13:29;;;;;;;9.97;4.70;;;20.20;79.80;;;;;;5129370;27;20235;-64
2023/05/31 01:16:20;;;;;;;6.60;4.73;;;20.20;79.80;;;;;;5114934;27;20219;-63
2023/05/31 01:19:00;;;;;;;9.20;5.53;;;20.10;79.80;;;;;;5111710;27;20201;-63
2023/05/31 01:21:44;;;;;;;9.33;4.97;;;20.10;80.00;;;;;;5107514;27;20279;-63
2023/05/31 01:24:39;;;;;;;7.53;4.47;;;20.10;80.10;;;;;;5112998;27;20184;-63
2023/05/31 01:27:07;;;;;;;6.83;4.53;;;20.10;80.00;;;;;;5129500;27;20201;-63
2023/05/31 01:29:36;;;;;;;8.23;5.03;;;20.20;80.10;;;;;;5114652;27;20192;-64
2023/05/31 01:32:03;;;;;;;6.33;4.43;;;20.20;79.60;;;;;;5114922;27;20288;-63
2023/05/31 01:34:30;;;;;;;6.73;4.20;;;20.20;79.30;;;;;;5114169;27;20212;-63
2023/05/31 01:36:57;;;;;;;8.37;5.43;;;20.20;78.90;;;;;;5114920;27;20306;-63
2023/05/31 01:39:25;;;;;;;6.33;4.93;;;20.20;79.00;;;;;;5115506;27;20199;-63
2023/05/31 01:41:53;;;;;;;7.00;4.67;;;20.20;79.10;;;;;;5113907;27;20216;-64
2023/05/31 01:44:20;;;;;;;6.77;4.60;;;20.20;79.00;;;;;;5108840;27;20200;-64
2023/05/31 01:46:49;;;;;;;9.27;4.80;;;20.20;78.80;;;;;;5113419;27;20368;-63
2023/05/31 01:49:16;;;;;;;6.70;4.47;;;20.20;78.90;;;;;;5114784;28;20202;-63
2023/05/31 01:51:45;;;;;;;7.63;5.07;;;20.20;78.90;;;;;;5114999;27;20219;-63
2023/05/31 01:54:14;;;;;;;7.50;5.20;;;20.20;78.60;;;;;;5111838;28;20200;-62
2023/05/31 01:56:42;;;;;;;9.40;4.93;;;20.20;78.80;;;;;;5111629;27;20277;-65
2023/05/31 01:59:11;;;;;;;8.67;4.40;;;20.20;78.90;;;;;;5114803;27;20197;-65
2023/05/31 02:01:39;;;;;;;7.23;5.17;;;20.10;78.90;;;;;;5114034;27;20556;-63
2023/05/31 02:04:06;;;;;;;7.27;4.40;;;20.10;78.80;;;;;;5115476;28;20223;-63
2023/05/31 02:06:37;;;;;;;9.10;5.00;;;20.20;78.50;;;;;;5114631;28;20219;-63
2023/05/31 02:09:06;;;;;;;6.60;4.10;;;20.10;78.40;;;;;;5113647;28;20283;-63
2023/05/31 02:11:33;;;;;;;5.47;4.23;;;20.10;78.70;;;;;;5114602;27;20196;-63
2023/05/31 02:14:00;;;;;;;9.57;4.80;;;20.10;78.70;;;;;;5112245;28;20215;-63
2023/05/31 02:16:27;;;;;;;6.50;5.00;;;20.10;78.60;;;;;;5107793;28;20196;-63
2023/05/31 02:18:55;;;;;;;5.67;4.60;;;20.00;78.50;;;;;;5111203;28;20208;-63
2023/05/31 02:21:23;;;;;;;6.03;4.47;;;20.10;78.40;;;;;;5112181;28;20269;-63
2023/05/31 02:23:50;;;;;;;5.20;4.33;;;20.00;78.10;;;;;;5115881;28;20203;-63
2023/05/31 02:26:17;;;;;;;5.33;4.57;;;20.00;77.80;;;;;;5114179;28;20271;-63
2023/05/31 02:28:44;;;;;;;5.80;4.23;;;20.00;77.80;;;;;;5115055;28;20212;-63
2023/05/31 02:31:11;;;;;;;5.37;3.97;;;20.00;77.90;;;;;;5116281;28;20291;-65
2023/05/31 02:33:41;;;;;;;5.90;4.20;;;20.00;77.80;;;;;;5117175;28;20279;-63
2023/05/31 02:36:10;;;;;;;5.23;4.33;;;20.00;77.70;;;;;;5110688;28;20200;-64
2023/05/31 02:38:38;;;;;;;7.33;4.43;;;19.90;77.50;;;;;;5108325;28;20626;-63
2023/05/31 02:41:05;;;;;;;8.27;4.60;;;19.90;77.40;;;;;;5114671;28;20649;-64
2023/05/31 02:43:32;;;;;;;4.87;4.13;;;19.90;77.50;;;;;;5112544;28;20196;-63
2023/05/31 02:46:01;;;;;;;9.87;5.00;;;19.90;77.60;;;;;;5113060;28;20241;-63
2023/05/31 02:48:30;;;;;;;8.37;4.50;;;19.80;77.70;;;;;;5115543;28;20289;-63
2023/05/31 02:50:57;;;;;;;5.30;4.07;;;19.80;77.80;;;;;;5111172;28;20206;-62
2023/05/31 02:53:57;;;;;;;7.57;4.27;;;19.80;77.90;;;;;;5073868;27;20211;-63
2023/05/31 02:56:27;;;;;;;6.93;4.23;;;19.80;77.80;;;;;;5113187;28;20235;-64
2023/05/31 02:59:12;;;;;;;6.57;4.10;;;19.80;78.00;;;;;;5113774;28;20293;-63
2023/05/31 03:01:42;;;;;;;7.83;4.37;;;19.80;78.10;;;;;;5113436;28;20285;-63
2023/05/31 03:04:20;;;;;;;8.23;4.47;;;19.70;78.20;;;;;;5112696;28;20663;-63
2023/05/31 03:06:49;;;;;;;6.30;4.37;;;19.70;78.40;;;;;;5113284;28;20219;-64
2023/05/31 03:09:16;;;;;;;5.20;4.27;;;19.70;78.50;;;;;;5112272;28;20200;-63
2023/05/31 03:11:45;;;;;;;4.77;4.17;;;19.70;79.00;;;;;;5115520;28;20200;-63
2023/05/31 03:14:12;;;;;;;5.67;4.80;;;19.70;79.50;;;;;;5111953;28;20295;-64
2023/05/31 03:16:52;;;;;;;7.60;4.97;;;19.70;79.90;;;;;;5112776;28;20208;-63
2023/05/31 03:19:20;;;;;;;5.30;4.23;;;19.60;80.40;;;;;;5112085;28;20261;-63
2023/05/31 03:21:51;;;;;;;6.57;4.60;;;19.60;79.40;;;;;;5113163;28;20208;-63
2023/05/31 03:24:18;;;;;;;7.73;3.60;;;19.60;79.50;;;;;;5111898;28;20623;-62
2023/05/31 03:26:48;;;;;;;7.70;4.80;;;19.60;80.10;;;;;;5114970;27;20226;-62
2023/05/31 03:29:15;;;;;;;9.77;4.87;;;19.60;80.60;;;;;;5116556;27;20223;-63
2023/05/31 03:31:42;;;;;;;7.37;4.83;;;19.60;81.00;;;;;;5118064;27;20604;-63
2023/05/31 03:34:09;;;;;;;8.37;4.83;;;19.50;81.30;;;;;;5129787;27;20594;-64
2023/05/31 03:36:37;;;;;;;4.63;4.03;;;19.50;81.30;;;;;;5114625;27;20306;-63
2023/05/31 03:39:21;;;;;;;6.80;4.83;;;19.40;81.50;;;;;;5115890;27;20211;-64
2023/05/31 03:41:49;;;;;;;9.93;5.00;;;19.40;81.50;;;;;;5117166;27;20623;-63
2023/05/31 03:44:16;;;;;;;7.87;4.53;;;19.40;81.30;;;;;;5118968;27;20601;-63
2023/05/31 03:46:43;;;;;;;9.27;4.40;;;19.40;81.80;;;;;;5119493;27;20336;-63
2023/05/31 03:49:11;;;;;;;7.73;4.63;;;19.40;82.10;;;;;;5116824;27;20626;-63
2023/05/31 03:51:38;;;;;;;13.70;5.90;;;19.40;82.40;;;;;;5115412;27;20238;-63
2023/05/31 03:54:05;;;;;;;19.60;7.17;;;19.40;82.60;;;;;;5117512;27;20228;-63
2023/05/31 03:56:33;;;;;;;16.47;7.13;;;19.40;82.70;;;;;;5111533;27;20213;-63
2023/05/31 03:59:00;;;;;;;12.70;6.20;;;19.40;83.00;;;;;;5114929;27;20262;-63
2023/05/31 04:01:27;;;;;;;9.13;4.43;;;19.40;83.10;;;;;;5118046;27;20228;-64
2023/05/31 04:03:54;;;;;;;7.00;4.93;;;19.40;83.00;;;;;;5117282;27;20247;-64
2023/05/31 04:06:22;;;;;;;5.77;4.40;;;19.40;82.90;;;;;;5116561;27;20291;-63
2023/05/31 04:08:49;;;;;;;4.80;4.30;;;19.40;82.90;;;;;;5114403;27;20200;-63
2023/05/31 04:11:16;;;;;;;8.10;5.07;;;19.30;83.10;;;;;;5117288;27;20206;-62
2023/05/31 04:13:43;;;;;;;9.80;4.83;;;19.30;83.50;;;;;;5117605;27;20206;-63
2023/05/31 04:16:11;;;;;;;7.37;4.90;;;19.40;83.90;;;;;;5115596;27;20196;-63
2023/05/31 04:18:38;;;;;;;6.33;4.47;;;19.30;84.10;;;;;;5114500;27;20627;-62
2023/05/31 04:21:07;;;;;;;5.37;4.13;;;19.40;84.40;;;;;;5119040;27;20232;-64
2023/05/31 04:23:36;;;;;;;7.87;4.53;;;19.40;84.40;;;;;;5116378;27;20203;-63
2023/05/31 04:26:03;;;;;;;7.20;4.83;;;19.50;84.30;;;;;;5116929;27;20200;-64
2023/05/31 04:28:31;;;;;;;6.97;5.03;;;19.50;84.50;;;;;;5112210;27;20199;-63
2023/05/31 04:31:00;;;;;;;6.67;4.60;;;19.50;84.60;;;;;;5114794;27;20538;-64
2023/05/31 04:33:29;;;;;;;10.37;4.90;;;19.60;84.60;;;;;;5114885;27;20637;-63
2023/05/31 04:35:57;;;;;;;7.77;4.67;;;19.60;84.50;;;;;;5119931;27;20208;-64
2023/05/31 04:38:27;;;;;;;8.30;4.67;;;19.60;84.70;;;;;;5115724;27;20630;-63
2023/05/31 04:40:57;;;;;;;6.57;4.90;;;19.60;84.90;;;;;;5132624;27;20211;-63
2023/05/31 04:43:28;;;;;;;7.73;4.40;;;19.60;85.00;;;;;;5118970;27;20223;-64
2023/05/31 04:46:00;;;;;;;8.43;4.50;;;19.70;85.20;;;;;;5114001;27;20602;-63
2023/05/31 04:48:29;;;;;;;9.03;5.40;;;19.70;85.30;;;;;;5116252;27;20235;-63
2023/05/31 04:50:58;;;;;;;11.57;5.10;;;19.70;85.10;;;;;;5114369;27;20231;-64
2023/05/31 04:53:26;;;;;;;11.90;4.80;;;19.80;85.10;;;;;;5118608;27;20231;-63
2023/05/31 04:55:54;;;;;;;6.87;4.57;;;19.80;84.80;;;;;;5115692;27;20227;-65
2023/05/31 04:58:21;;;;;;;6.97;4.70;;;19.90;84.10;;;;;;5115972;27;20653;-63
2023/05/31 05:00:49;;;;;;;6.50;4.40;;;20.00;83.00;;;;;;5115408;27;20659;-63
2023/05/31 05:03:29;;;;;;;5.80;4.27;;;20.00;82.30;;;;;;5113982;27;20621;-63
2023/05/31 05:05:57;;;;;;;6.53;4.77;;;20.10;81.60;;;;;;5115512;27;20207;-62
2023/05/31 05:08:24;;;;;;;13.20;4.83;;;20.10;81.60;;;;;;5111751;27;20189;-63
2023/05/31 05:10:51;;;;;;;6.53;5.13;;;20.20;82.00;;;;;;5116472;27;20638;-63
2023/05/31 05:13:18;;;;;;;5.93;4.87;;;20.30;82.10;;;;;;5114215;27;20650;-63
2023/05/31 05:15:47;;;;;;;7.40;4.40;;;20.40;82.10;;;;;;5112243;27;20219;-63
2023/05/31 05:18:14;;;;;;;6.03;4.63;;;20.50;81.90;;;;;;5113775;27;20735;-62
2023/05/31 05:20:42;;;;;;;7.73;5.47;;;20.60;81.90;;;;;;5112552;27;20299;-63
2023/05/31 05:23:10;;;;;;;6.17;5.47;;;20.80;81.80;;;;;;5114060;27;20252;-63
2023/05/31 05:25:37;;;;;;;6.07;5.03;;;21.00;81.10;;;;;;5117272;27;20212;-63
2023/05/31 05:28:04;;;;;;;6.30;5.60;;;21.10;80.00;;;;;;5115532;27;20203;-63
2023/05/31 05:30:32;;;;;;;8.90;5.03;;;21.20;79.30;;;;;;5113844;27;20235;-63
2023/05/31 05:33:00;;;;;;;6.90;4.57;;;21.20;78.70;;;;;;5111848;27;20205;-63
2023/05/31 05:35:28;;;;;;;7.53;5.00;;;21.30;78.70;;;;;;5113544;27;20270;-64
2023/05/31 05:37:57;;;;;;;5.83;4.80;;;21.40;78.50;;;;;;5111292;27;20201;-63
2023/05/31 05:40:25;;;;;;;7.30;4.77;;;21.50;78.60;;;;;;5111925;27;20208;-63
2023/05/31 05:42:54;;;;;;;8.43;5.27;;;21.60;78.70;;;;;;5117957;27;20230;-63
2023/05/31 05:45:22;;;;;;;7.80;4.97;;;21.70;78.70;;;;;;5115617;27;20242;-67
2023/05/31 05:47:49;;;;;;;8.00;4.40;;;21.80;79.00;;;;;;5114658;27;20235;-64
2023/05/31 05:50:17;;;;;;;7.77;4.43;;;21.90;79.60;;;;;;5113522;28;20654;-64
2023/05/31 05:52:44;;;;;;;6.33;4.40;;;21.90;79.90;;;;;;5113990;27;20217;-64
2023/05/31 05:55:11;;;;;;;8.33;4.23;;;22.00;79.60;;;;;;5114848;27;20269;-63
2023/05/31 05:57:39;;;;;;;7.03;4.53;;;22.20;78.80;;;;;;5112890;28;20219;-63
2023/05/31 06:00:40;;;;;;;6.47;4.67;;;22.30;77.80;;;;;;5092107;27;20216;-63
2023/05/31 06:03:08;;;;;;;6.17;4.67;;;22.50;76.60;;;;;;5115495;27;20303;-63
2023/05/31 06:05:36;;;;;;;8.23;4.50;;;22.50;75.50;;;;;;5114987;27;20406;-63
2023/05/31 06:08:04;;;;;;;11.07;4.87;;;22.60;75.80;;;;;;5110963;27;20651;-62
2023/05/31 06:10:33;;;;;;;7.43;5.10;;;22.70;75.10;;;;;;5114059;27;20261;-63
2023/05/31 06:13:00;;;;;;;8.43;5.50;;;22.80;73.90;;;;;;5099817;28;20300;-62
2023/05/31 06:15:27;;;;;;;7.20;5.73;;;22.80;73.40;;;;;;5113038;28;20287;-63
2023/05/31 06:17:54;;;;;;;6.97;5.37;;;22.80;72.80;;;;;;5112835;28;20216;-64
2023/05/31 06:20:22;;;;;;;5.97;4.87;;;22.80;72.50;;;;;;5116730;28;20543;-63
2023/05/31 06:22:50;;;;;;;9.47;5.37;;;22.90;72.40;;;;;;5115069;28;20262;-63
2023/05/31 06:25:19;;;;;;;7.50;5.40;;;23.00;72.70;;;;;;5113371;28;20224;-63
2023/05/31 06:27:46;;;;;;;6.90;5.40;;;23.00;72.30;;;;;;5114194;28;20204;-63
2023/05/31 06:30:15;;;;;;;5.63;5.03;;;23.10;72.20;;;;;;5128624;27;20778;-63
2023/05/31 06:32:45;;;;;;;10.33;5.53;;;23.20;72.40;;;;;;5113225;28;20202;-64
2023/05/31 06:35:19;;;;;;;7.93;5.63;;;23.40;72.30;;;;;;5114319;28;20212;-63
2023/05/31 06:37:46;;;;;;;9.73;5.60;;;23.40;71.10;;;;;;5127416;28;20204;-63
2023/05/31 06:40:13;;;;;;;7.77;5.17;;;23.50;71.40;;;;;;5116601;28;20279;-64
2023/05/31 06:42:42;;;;;;;7.30;5.30;;;23.60;72.00;;;;;;5112261;28;20302;-64
2023/05/31 06:45:41;;;;;;;7.60;5.33;;;23.70;72.10;;;;;;5067729;28;20203;-62
2023/05/31 06:48:18;;;;;;;6.63;5.10;;;23.90;72.60;;;;;;5116590;28;20257;-64
2023/05/31 06:51:00;;;;;;;9.20;5.57;;;24.10;72.20;;;;;;5114038;28;20253;-62
2023/05/31 06:54:03;;;;;;;7.47;5.03;;;24.30;71.40;;;;;;5114216;28;20287;-63
2023/05/31 06:56:33;;;;;;;7.00;5.40;;;24.50;70.30;;;;;;5116315;28;20631;-62
2023/05/31 06:59:00;;;;;;;8.90;5.10;;;24.70;70.00;;;;;;5111821;28;20199;-63
2023/05/31 07:01:28;;;;;;;8.60;5.73;;;24.80;69.70;;;;;;5123346;27;20197;-65
2023/05/31 07:03:56;;;;;;;11.30;4.87;;;25.00;68.90;;;;;;5121376;27;20231;-64
2023/05/31 07:06:24;;;;;;;7.40;4.80;;;25.10;69.10;;;;;;5120053;27;20587;-63
2023/05/31 07:08:51;;;;;;;8.97;5.47;;;25.20;69.10;;;;;;5114981;28;20303;-66
2023/05/31 07:11:34;;;;;;;5.10;4.60;;;25.30;68.10;;;;;;5103709;28;20215;-65
2023/05/31 07:14:03;;;;;;;10.13;5.33;;;25.50;67.90;;;;;;5113214;27;20264;-64
2023/05/31 07:16:31;;;;;;;11.37;5.77;;;25.60;67.30;;;;;;5099295;28;20277;-65
2023/05/31 07:18:59;;;;;;;7.77;4.97;;;25.60;67.20;;;;;;5117016;27;20214;-64
2023/05/31 07:21:26;;;;;;;9.53;4.97;;;25.70;67.40;;;;;;5114870;27;20289;-63
2023/05/31 07:23:54;;;;;;;8.47;5.00;;;25.60;66.30;;;;;;5122579;27;20235;-65
2023/05/31 07:26:22;;;;;;;12.83;4.57;;;25.50;66.60;;;;;;5117683;27;20282;-63
2023/05/31 07:28:52;;;;;;;8.23;5.73;;;25.50;66.70;;;;;;5119091;27;20205;-64
2023/05/31 07:31:20;;;;;;;10.60;5.43;;;25.50;66.20;;;;;;5119660;27;20620;-64
2023/05/31 07:33:48;;;;;;;9.57;4.60;;;25.50;66.40;;;;;;5118517;27;20197;-64
2023/05/31 07:36:15;;;;;;;7.70;5.10;;;25.60;67.10;;;;;;5118647;27;20208;-63
2023/05/31 07:38:42;;;;;;;6.80;4.43;;;25.70;66.80;;;;;;5119758;27;20204;-61
2023/05/31 07:41:09;;;;;;;10.47;4.57;;;25.80;66.10;;;;;;5118075;27;20207;-63
2023/05/31 07:43:36;;;;;;;6.93;4.37;;;25.90;67.50;;;;;;5120497;27;20225;-63
2023/05/31 07:46:04;;;;;;;6.20;5.07;;;26.00;66.80;;;;;;5119294;27;20226;-62
2023/05/31 07:48:33;;;;;;;11.73;5.23;;;26.10;65.90;;;;;;5117791;27;20579;-63
2023/05/31 07:51:00;;;;;;;9.13;5.60;;;26.30;65.50;;;;;;5119819;27;20242;-64
2023/05/31 07:53:27;;;;;;;9.67;5.00;;;26.40;65.70;;;;;;5120714;27;20193;-63
2023/05/31 07:55:54;;;;;;;6.07;4.50;;;26.60;64.90;;;;;;5116404;27;20207;-63
2023/05/31 07:58:21;;;;;;;7.77;5.10;;;26.60;63.70;;;;;;5118090;27;20203;-63
2023/05/31 08:00:51;;;;;;;9.13;4.90;;;26.70;63.70;;;;;;5118793;27;20261;-62
2023/05/31 08:03:19;;;;;;;7.27;4.20;;;26.70;62.70;;;;;;5116227;27;20345;-63
2023/05/31 08:05:48;;;;;;;6.83;4.07;;;26.80;61.40;;;;;;5119682;27;20231;-64
2023/05/31 08:08:16;;;;;;;6.57;4.20;;;26.80;61.20;;;;;;5116729;27;20195;-64
2023/05/31 08:10:43;;;;;;;5.83;3.90;;;26.80;60.20;;;;;;5114595;27;20231;-63
2023/05/31 08:13:11;;;;;;;6.27;4.03;;;26.80;60.50;;;;;;5117427;27;20686;-63
2023/05/31 08:15:38;;;;;;;5.73;4.10;;;26.70;59.10;;;;;;5118463;27;20196;-63
2023/05/31 08:18:05;;;;;;;5.00;4.40;;;26.70;60.30;;;;;;5117318;27;20200;-64
2023/05/31 08:20:34;;;;;;;7.50;4.30;;;26.70;59.70;;;;;;5120015;27;20201;-62
2023/05/31 08:23:02;;;;;;;6.17;4.43;;;26.80;60.40;;;;;;5117221;27;20709;-61
2023/05/31 08:25:29;;;;;;;8.10;4.30;;;26.80;59.80;;;;;;5116739;27;20192;-64
2023/05/31 08:27:56;;;;;;;8.57;4.20;;;26.90;59.30;;;;;;5120034;27;20646;-64
2023/05/31 08:30:23;;;;;;;7.20;4.70;;;27.00;58.20;;;;;;5113801;27;20204;-62
2023/05/31 08:32:50;;;;;;;6.53;4.53;;;27.10;59.30;;;;;;5117935;27;20212;-64
2023/05/31 08:35:17;;;;;;;6.10;4.50;;;27.20;58.50;;;;;;5120082;27;20196;-63
2023/05/31 08:37:45;;;;;;;25.00;7.27;;;27.30;57.90;;;;;;5117963;27;20201;-63
2023/05/31 08:40:14;;;;;;;7.20;4.47;;;27.30;60.00;;;;;;5118189;27;20626;-63
2023/05/31 08:42:46;;;;;;;12.03;5.53;;;27.50;59.60;;;;;;5116884;27;20216;-63
2023/05/31 08:45:13;;;;;;;6.90;4.30;;;27.60;60.10;;;;;;5118210;27;20192;-61
2023/05/31 08:47:51;;;;;;;5.30;4.13;;;27.90;60.60;;;;;;5118717;27;20281;-66
2023/05/31 08:50:19;;;;;;;9.20;4.43;;;28.00;57.60;;;;;;5118877;27;20597;-66
2023/05/31 08:52:46;;;;;;;6.20;4.53;;;28.00;56.30;;;;;;5120058;27;20287;-65
2023/05/31 08:55:14;;;;;;;10.07;4.90;;;27.90;56.80;;;;;;5114096;27;20235;-63
2023/05/31 08:57:41;;;;;;;9.50;4.87;;;27.80;58.20;;;;;;5119413;27;20210;-63
2023/05/31 09:00:10;;;;;;;6.93;4.40;;;27.90;57.90;;;;;;5115506;27;20209;-62
2023/05/31 09:02:38;;;;;;;6.37;4.83;;;27.80;57.40;;;;;;5113926;27;20215;-63
2023/05/31 09:05:10;;;;;;;6.27;4.87;;;27.80;57.90;;;;;;5116802;27;20689;-64
2023/05/31 09:07:38;;;;;;;4.87;4.47;;;27.80;58.90;;;;;;5118589;27;20193;-63
2023/05/31 09:10:08;;;;;;;6.47;4.90;;;27.90;58.60;;;;;;5115066;27;20203;-64
2023/05/31 09:12:36;;;;;;;8.07;5.20;;;27.90;57.30;;;;;;5119146;27;20203;-62
2023/05/31 09:15:05;;;;;;;6.30;4.70;;;27.70;58.20;;;;;;5115303;28;20619;-64
2023/05/31 09:17:33;;;;;;;6.77;3.93;;;27.60;59.20;;;;;;5115864;27;20200;-65
2023/05/31 09:20:00;;;;;;;6.53;4.60;;;27.80;59.90;;;;;;5119568;27;20241;-60
2023/05/31 09:22:28;;;;;;;5.80;3.93;;;28.00;59.00;;;;;;5116202;27;20634;-61
2023/05/31 09:24:59;;;;;;;9.43;3.97;;;28.10;57.30;;;;;;5116390;27;20630;-63
2023/05/31 09:27:33;;;;;;;6.40;3.80;;;28.30;57.80;;;;;;5115240;27;20249;-62
2023/05/31 09:30:13;;;;;;;6.77;4.20;;;28.50;56.40;;;;;;5117012;27;20552;-61
2023/05/31 09:32:40;;;;;;;6.13;4.20;;;28.50;56.20;;;;;;5114902;27;20218;-63
2023/05/31 09:35:16;;;;;;;6.43;4.23;;;28.40;55.90;;;;;;5120344;27;20193;-63
2023/05/31 09:37:44;;;;;;;4.57;3.80;;;28.40;56.40;;;;;;5117038;27;20628;-65
2023/05/31 09:40:21;;;;;;;4.17;3.70;;;28.40;54.90;;;;;;5115911;27;20203;-63
2023/05/31 09:42:49;;;;;;;5.13;4.07;;;28.40;54.90;;;;;;5119892;27;20252;-66
2023/05/31 09:45:17;;;;;;;5.80;3.80;;;28.50;52.10;;;;;;5117719;27;20195;-65
2023/05/31 09:47:45;;;;;;;4.60;4.13;;;28.50;53.10;;;;;;5114911;27;20267;-62
2023/05/31 09:50:20;;;;;;;7.93;4.23;;;28.50;52.90;;;;;;5118626;27;20563;-63
2023/05/31 09:52:49;;;;;;;4.43;4.00;;;28.50;54.10;;;;;;5117104;27;20204;-63
2023/05/31 09:55:16;;;;;;;11.77;4.63;;;28.60;52.80;;;;;;5117549;27;20200;-65
2023/05/31 09:57:45;;;;;;;4.77;3.77;;;28.70;52.10;;;;;;5117186;27;20274;-64
2023/05/31 10:00:18;;;;;;;6.57;4.07;;;28.80;51.00;;;;;;5114621;28;20188;-63
2023/05/31 10:02:53;;;;;;;5.77;3.60;;;28.70;50.90;;;;;;5120006;27;20196;-64
2023/05/31 10:05:21;;;;;;;8.40;4.37;;;28.60;50.90;;;;;;5116318;27;20250;-64
2023/05/31 10:07:50;;;;;;;5.20;4.50;;;28.60;51.30;;;;;;5115845;28;20224;-61
2023/05/31 10:10:20;;;;;;;6.27;4.40;;;28.70;53.10;;;;;;5116131;27;20204;-62
2023/05/31 10:12:56;;;;;;;5.00;3.83;;;28.70;52.50;;;;;;5114252;27;20205;-63
2023/05/31 10:15:25;;;;;;;10.20;3.93;;;28.70;48.70;;;;;;5114192;27;20208;-62
2023/05/31 10:18:07;;;;;;;6.10;4.10;;;28.70;50.00;;;;;;5118599;27;20203;-64
2023/05/31 10:20:41;;;;;;;7.03;3.50;;;28.60;50.70;;;;;;5118019;28;20200;-64
2023/05/31 10:23:16;;;;;;;6.53;4.23;;;28.60;50.50;;;;;;5113949;28;20212;-63
2023/05/31 10:26:08;;;;;;;9.50;4.07;;;28.70;51.30;;;;;;5116737;28;20618;-65
2023/05/31 10:28:46;;;;;;;7.03;3.97;;;29.00;51.20;;;;;;5114994;28;20253;-64
2023/05/31 10:31:14;;;;;;;6.00;4.70;;;28.90;49.30;;;;;;5112599;28;20200;-64
2023/05/31 10:33:48;;;;;;;5.00;4.20;;;28.80;50.00;;;;;;5119672;27;20283;-65
2023/05/31 10:36:16;;;;;;;8.07;4.00;;;28.70;49.70;;;;;;5115825;27;20304;-64
2023/05/31 10:38:51;;;;;;;8.03;4.50;;;28.70;49.20;;;;;;5120823;27;20211;-64
2023/05/31 10:41:23;;;;;;;6.03;4.13;;;28.80;50.80;;;;;;5123220;27;20207;-64
2023/05/31 10:44:17;;;;;;;5.00;4.17;;;28.90;49.40;;;;;;5117221;27;20546;-65
2023/05/31 10:46:48;;;;;;;5.77;4.13;;;28.90;50.90;;;;;;5120583;27;20247;-64
2023/05/31 10:49:18;;;;;;;6.30;3.97;;;29.00;50.50;;;;;;5120284;27;20245;-65
2023/05/31 10:51:46;;;;;;;8.57;4.30;;;29.10;51.20;;;;;;5117808;27;20192;-65
2023/05/31 10:54:21;;;;;;;6.40;4.10;;;29.20;49.50;;;;;;5122732;27;20195;-65
2023/05/31 10:56:55;;;;;;;5.23;3.97;;;29.30;50.00;;;;;;5121455;27;20213;-64
2023/05/31 10:59:23;;;;;;;6.37;4.10;;;29.30;51.20;;;;;;5118337;27;20210;-65
2023/05/31 11:01:51;;;;;;;5.87;3.40;;;29.30;49.40;;;;;;5119276;27;20201;-65
2023/05/31 11:04:20;;;;;;;4.97;3.57;;;29.40;49.80;;;;;;5119795;27;20677;-64
2023/05/31 11:06:52;;;;;;;6.53;4.10;;;29.40;49.60;;;;;;5118303;27;20184;-65
2023/05/31 11:09:20;;;;;;;4.47;4.03;;;29.60;50.40;;;;;;5124817;27;20204;-63
2023/05/31 11:11:48;;;;;;;4.63;4.13;;;29.70;48.70;;;;;;5118799;27;20192;-67
2023/05/31 11:14:15;;;;;;;5.00;3.50;;;29.60;47.30;;;;;;5119368;27;20235;-67
2023/05/31 11:16:49;;;;;;;6.50;4.03;;;29.60;47.80;;;;;;5119623;27;20238;-67
2023/05/31 11:19:17;;;;;;;6.47;4.40;;;29.40;46.50;;;;;;5119050;27;20205;-66
2023/05/31 11:21:55;;;;;;;7.57;4.40;;;29.30;48.00;;;;;;5117371;27;20273;-66
2023/05/31 11:24:38;;;;;;;6.53;4.13;;;29.20;48.60;;;;;;5122105;27;20295;-67
2023/05/31 11:27:11;;;;;;;7.57;4.20;;;29.10;48.40;;;;;;5118681;27;20206;-66
2023/05/31 11:29:44;;;;;;;5.53;3.93;;;29.10;48.70;;;;;;5119395;27;20197;-66
2023/05/31 11:32:12;;;;;;;7.50;3.87;;;29.10;49.40;;;;;;5121760;27;20214;-66
2023/05/31 11:35:00;;;;;;;7.60;4.43;;;29.20;48.50;;;;;;5118415;27;20578;-67
2023/05/31 11:37:31;;;;;;;4.90;4.00;;;29.20;47.50;;;;;;5113868;27;20208;-66
2023/05/31 11:40:06;;;;;;;4.83;3.60;;;29.20;46.90;;;;;;5121208;27;20243;-66
2023/05/31 11:42:41;;;;;;;6.70;4.40;;;29.20;47.80;;;;;;5117902;27;20210;-67
2023/05/31 11:45:10;;;;;;;6.90;3.90;;;29.20;47.60;;;;;;5123193;27;20657;-66
2023/05/31 11:47:45;;;;;;;4.73;4.03;;;29.20;48.20;;;;;;5120039;27;20259;-67
2023/05/31 11:50:13;;;;;;;6.90;4.60;;;29.20;47.60;;;;;;5116032;27;20228;-66
2023/05/31 11:52:40;;;;;;;7.50;3.73;;;29.20;48.70;;;;;;5120840;27;20201;-67
2023/05/31 11:55:09;;;;;;;10.00;4.20;;;29.10;50.60;;;;;;5118116;27;20710;-66
2023/05/31 11:57:44;;;;;;;5.73;4.13;;;29.20;48.00;;;;;;5116909;27;20704;-67
2023/05/31 12:00:12;;;;;;;10.50;4.37;;;29.20;47.70;;;;;;5124146;27;20208;-67
2023/05/31 12:02:40;;;;;;;5.67;4.93;;;29.10;46.30;;;;;;5117065;27;20279;-67
2023/05/31 12:05:15;;;;;;;6.73;4.00;;;29.10;47.30;;;;;;5120236;27;20220;-66
2023/05/31 12:07:43;;;;;;;4.80;4.37;;;29.10;48.20;;;;;;5121408;27;20196;-67
2023/05/31 12:10:11;;;;;;;4.17;3.77;;;29.10;47.40;;;;;;5120280;27;20207;-67
2023/05/31 12:12:42;;;;;;;7.40;3.90;;;29.20;47.00;;;;;;5115342;27;20693;-67
2023/05/31 12:15:12;;;;;;;5.40;3.83;;;29.20;48.40;;;;;;5120730;27;20203;-66
2023/05/31 12:17:40;;;;;;;8.30;4.27;;;29.20;49.40;;;;;;5123880;27;20195;-66
2023/05/31 12:20:12;;;;;;;7.83;4.60;;;29.20;48.80;;;;;;5117464;27;20731;-66
2023/05/31 12:22:39;;;;;;;9.70;4.17;;;29.20;48.70;;;;;;5118379;27;20192;-66
2023/05/31 12:25:07;;;;;;;7.60;3.80;;;29.20;49.00;;;;;;5116860;27;20220;-67
2023/05/31 12:27:35;;;;;;;8.47;4.17;;;29.30;49.00;;;;;;5119558;27;20192;-66
2023/05/31 12:30:18;;;;;;;5.40;4.37;;;29.40;48.30;;;;;;5116320;27;20192;-63
2023/05/31 12:32:46;;;;;;;8.27;3.80;;;29.30;49.00;;;;;;5117189;27;20196;-65
2023/05/31 12:35:13;;;;;;;5.60;4.13;;;29.40;48.50;;;;;;5115824;27;20215;-65
2023/05/31 12:37:42;;;;;;;5.87;3.60;;;29.40;48.80;;;;;;5119678;27;20243;-65
2023/05/31 12:40:15;;;;;;;6.43;4.20;;;29.30;48.40;;;;;;5118918;27;20188;-65
2023/05/31 12:42:42;;;;;;;4.03;3.30;;;29.30;47.80;;;;;;5115939;27;20193;-65
2023/05/31 12:45:10;;;;;;;7.57;4.33;;;29.20;48.90;;;;;;5112865;27;20204;-66
2023/05/31 12:47:37;;;;;;;4.37;3.47;;;29.20;49.10;;;;;;5116461;27;20236;-66
2023/05/31 12:50:07;;;;;;;5.33;3.60;;;29.10;49.70;;;;;;5121738;27;20210;-65
2023/05/31 12:52:38;;;;;;;6.33;4.37;;;29.10;48.40;;;;;;5120967;27;20191;-66
2023/05/31 12:55:07;;;;;;;5.27;4.27;;;29.10;48.90;;;;;;5116083;27;20555;-65
2023/05/31 12:57:35;;;;;;;8.13;4.00;;;28.90;48.00;;;;;;5115285;27;20216;-66
2023/05/31 13:00:08;;;;;;;7.27;4.20;;;28.90;49.60;;;;;;5118294;27;20204;-65